sensor_id;sensor_type;location;lat;lon;timestamp;P1;durP1;ratioP1;P2;durP2;ratioP2
14708;SDS011;7445;50.774;4.944;2023-02-01T00:01:43;52.43;;;33.33;;
14708;SDS011;7445;50.774;4.944;2023-02-01T00:04:09;63.47;;;34.17;;
14708;SDS011;7445;50.774;4.944;2023-02-01T00:06:35;55.90;;;34.57;;
14708;SDS011;7445;50.774;4.944;2023-02-01T00:09:01;55.90;;;33.43;;
14708;SDS011;7445;50.774;4.944;2023-02-01T00:11:27;58.27;;;34.67;;
14708;SDS011;7445;50.774;4.944;2023-02-01T00:13:53;54.40;;;34.23;;
14708;SDS011;7445;50.774;4.944;2023-02-01T00:16:19;53.80;;;33.03;;
14708;SDS011;7445;50.774;4.944;2023-02-01T00:18:48;53.27;;;33.53;;
14708;SDS011;7445;50.774;4.944;2023-02-01T00:21:16;52.90;;;33.13;;
14708;SDS011;7445;50.774;4.944;2023-02-01T00:23:44;53.83;;;33.57;;
14708;SDS011;7445;50.774;4.944;2023-02-01T00:26:16;53.63;;;33.00;;
14708;SDS011;7445;50.774;4.944;2023-02-01T00:28:43;50.17;;;31.47;;
14708;SDS011;7445;50.774;4.944;2023-02-01T00:31:09;44.63;;;31.63;;
14708;SDS011;7445;50.774;4.944;2023-02-01T00:33:34;54.53;;;32.57;;
14708;SDS011;7445;50.774;4.944;2023-02-01T00:36:01;49.57;;;32.30;;
14708;SDS011;7445;50.774;4.944;2023-02-01T00:38:31;46.63;;;29.80;;
14708;SDS011;7445;50.774;4.944;2023-02-01T00:41:04;44.77;;;28.83;;
14708;SDS011;7445;50.774;4.944;2023-02-01T00:43:38;40.50;;;28.50;;
14708;SDS011;7445;50.774;4.944;2023-02-01T00:46:04;44.30;;;29.07;;
14708;SDS011;7445;50.774;4.944;2023-02-01T00:48:30;42.70;;;31.07;;
14708;SDS011;7445;50.774;4.944;2023-02-01T00:50:59;51.60;;;31.53;;
14708;SDS011;7445;50.774;4.944;2023-02-01T00:53:25;39.57;;;28.97;;
14708;SDS011;7445;50.774;4.944;2023-02-01T00:55:51;45.53;;;30.13;;
14708;SDS011;7445;50.774;4.944;2023-02-01T00:58:17;44.83;;;28.70;;
14708;SDS011;7445;50.774;4.944;2023-02-01T01:00:43;52.43;;;31.50;;
14708;SDS011;7445;50.774;4.944;2023-02-01T01:03:09;43.67;;;29.23;;
14708;SDS011;7445;50.774;4.944;2023-02-01T01:05:45;37.37;;;28.23;;
14708;SDS011;7445;50.774;4.944;2023-02-01T01:08:14;54.17;;;30.83;;
14708;SDS011;7445;50.774;4.944;2023-02-01T01:10:40;60.97;;;29.27;;
14708;SDS011;7445;50.774;4.944;2023-02-01T01:13:06;39.13;;;26.27;;
14708;SDS011;7445;50.774;4.944;2023-02-01T01:15:39;40.93;;;26.83;;
14708;SDS011;7445;50.774;4.944;2023-02-01T01:18:05;48.23;;;28.53;;
14708;SDS011;7445;50.774;4.944;2023-02-01T01:20:33;38.33;;;25.33;;
14708;SDS011;7445;50.774;4.944;2023-02-01T01:23:00;38.83;;;25.00;;
14708;SDS011;7445;50.774;4.944;2023-02-01T01:25:26;35.80;;;24.20;;
14708;SDS011;7445;50.774;4.944;2023-02-01T01:27:52;43.07;;;25.90;;
14708;SDS011;7445;50.774;4.944;2023-02-01T01:30:17;48.10;;;27.80;;
14708;SDS011;7445;50.774;4.944;2023-02-01T01:32:43;41.27;;;26.43;;
14708;SDS011;7445;50.774;4.944;2023-02-01T01:35:09;40.63;;;23.63;;
14708;SDS011;7445;50.774;4.944;2023-02-01T01:37:35;42.23;;;22.97;;
14708;SDS011;7445;50.774;4.944;2023-02-01T01:40:03;42.73;;;23.37;;
14708;SDS011;7445;50.774;4.944;2023-02-01T01:42:29;42.83;;;23.23;;
14708;SDS011;7445;50.774;4.944;2023-02-01T01:44:56;33.83;;;20.23;;
14708;SDS011;7445;50.774;4.944;2023-02-01T01:47:29;31.13;;;18.93;;
14708;SDS011;7445;50.774;4.944;2023-02-01T01:50:07;39.90;;;19.60;;
14708;SDS011;7445;50.774;4.944;2023-02-01T01:52:34;30.63;;;17.60;;
14708;SDS011;7445;50.774;4.944;2023-02-01T01:55:02;32.63;;;16.10;;
14708;SDS011;7445;50.774;4.944;2023-02-01T01:57:32;28.13;;;14.60;;
14708;SDS011;7445;50.774;4.944;2023-02-01T02:00:05;31.77;;;16.00;;
14708;SDS011;7445;50.774;4.944;2023-02-01T02:02:34;30.60;;;15.33;;
14708;SDS011;7445;50.774;4.944;2023-02-01T02:05:02;29.90;;;15.40;;
14708;SDS011;7445;50.774;4.944;2023-02-01T02:07:30;32.50;;;14.57;;
14708;SDS011;7445;50.774;4.944;2023-02-01T02:09:59;26.53;;;12.90;;
14708;SDS011;7445;50.774;4.944;2023-02-01T02:12:26;19.50;;;12.33;;
14708;SDS011;7445;50.774;4.944;2023-02-01T02:14:52;23.47;;;12.23;;
14708;SDS011;7445;50.774;4.944;2023-02-01T02:20:13;29.27;;;10.97;;
14708;SDS011;7445;50.774;4.944;2023-02-01T02:34:20;28.40;;;7.70;;
14708;SDS011;7445;50.774;4.944;2023-02-01T02:42:13;20.00;;;7.80;;
14708;SDS011;7445;50.774;4.944;2023-02-01T02:45:12;16.53;;;7.23;;
14708;SDS011;7445;50.774;4.944;2023-02-01T02:48:07;18.90;;;6.57;;
14708;SDS011;7445;50.774;4.944;2023-02-01T02:50:53;19.93;;;7.17;;
14708;SDS011;7445;50.774;4.944;2023-02-01T02:53:47;11.97;;;5.60;;
14708;SDS011;7445;50.774;4.944;2023-02-01T02:56:36;21.17;;;6.00;;
14708;SDS011;7445;50.774;4.944;2023-02-01T02:59:23;17.13;;;5.60;;
14708;SDS011;7445;50.774;4.944;2023-02-01T03:02:09;15.73;;;5.20;;
14708;SDS011;7445;50.774;4.944;2023-02-01T03:04:55;23.47;;;5.57;;
14708;SDS011;7445;50.774;4.944;2023-02-01T03:10:10;11.83;;;5.37;;
14708;SDS011;7445;50.774;4.944;2023-02-01T03:12:46;16.90;;;6.20;;
14708;SDS011;7445;50.774;4.944;2023-02-01T03:15:21;23.77;;;5.00;;
14708;SDS011;7445;50.774;4.944;2023-02-01T03:17:53;10.43;;;4.77;;
14708;SDS011;7445;50.774;4.944;2023-02-01T03:20:22;19.10;;;5.93;;
14708;SDS011;7445;50.774;4.944;2023-02-01T03:22:49;15.63;;;4.33;;
14708;SDS011;7445;50.774;4.944;2023-02-01T03:25:20;13.80;;;5.13;;
14708;SDS011;7445;50.774;4.944;2023-02-01T03:28:23;17.67;;;5.40;;
14708;SDS011;7445;50.774;4.944;2023-02-01T03:30:45;23.80;;;5.93;;
14708;SDS011;7445;50.774;4.944;2023-02-01T03:33:17;15.30;;;4.83;;
14708;SDS011;7445;50.774;4.944;2023-02-01T03:43:48;17.97;;;4.60;;
14708;SDS011;7445;50.774;4.944;2023-02-01T03:49:18;18.37;;;4.83;;
14708;SDS011;7445;50.774;4.944;2023-02-01T03:51:54;20.17;;;5.70;;
14708;SDS011;7445;50.774;4.944;2023-02-01T03:54:21;12.90;;;5.07;;
14708;SDS011;7445;50.774;4.944;2023-02-01T03:56:48;20.73;;;6.10;;
14708;SDS011;7445;50.774;4.944;2023-02-01T03:59:16;27.07;;;5.93;;
14708;SDS011;7445;50.774;4.944;2023-02-01T04:01:42;22.20;;;4.83;;
14708;SDS011;7445;50.774;4.944;2023-02-01T04:04:08;10.77;;;4.77;;
14708;SDS011;7445;50.774;4.944;2023-02-01T04:06:35;19.57;;;4.83;;
14708;SDS011;7445;50.774;4.944;2023-02-01T04:09:00;31.27;;;7.37;;
14708;SDS011;7445;50.774;4.944;2023-02-01T04:11:27;17.30;;;5.87;;
14708;SDS011;7445;50.774;4.944;2023-02-01T04:13:54;14.93;;;5.53;;
14708;SDS011;7445;50.774;4.944;2023-02-01T04:16:19;13.03;;;4.67;;
14708;SDS011;7445;50.774;4.944;2023-02-01T04:18:45;21.70;;;5.70;;
14708;SDS011;7445;50.774;4.944;2023-02-01T04:21:11;14.60;;;4.57;;
14708;SDS011;7445;50.774;4.944;2023-02-01T04:23:36;14.53;;;5.03;;
14708;SDS011;7445;50.774;4.944;2023-02-01T04:26:02;24.60;;;6.77;;
14708;SDS011;7445;50.774;4.944;2023-02-01T04:28:29;20.13;;;5.50;;
14708;SDS011;7445;50.774;4.944;2023-02-01T04:30:55;20.53;;;4.77;;
14708;SDS011;7445;50.774;4.944;2023-02-01T04:33:21;15.53;;;5.13;;
14708;SDS011;7445;50.774;4.944;2023-02-01T04:35:47;20.20;;;4.53;;
14708;SDS011;7445;50.774;4.944;2023-02-01T04:38:13;9.73;;;4.53;;
14708;SDS011;7445;50.774;4.944;2023-02-01T04:40:38;20.00;;;5.27;;
14708;SDS011;7445;50.774;4.944;2023-02-01T04:43:04;13.47;;;4.90;;
14708;SDS011;7445;50.774;4.944;2023-02-01T04:45:30;15.67;;;5.23;;
14708;SDS011;7445;50.774;4.944;2023-02-01T04:47:56;19.10;;;5.53;;
14708;SDS011;7445;50.774;4.944;2023-02-01T04:50:22;15.37;;;4.33;;
14708;SDS011;7445;50.774;4.944;2023-02-01T04:52:48;10.87;;;4.40;;
14708;SDS011;7445;50.774;4.944;2023-02-01T04:55:14;18.67;;;5.27;;
14708;SDS011;7445;50.774;4.944;2023-02-01T04:57:40;18.13;;;5.10;;
14708;SDS011;7445;50.774;4.944;2023-02-01T05:00:06;24.50;;;5.23;;
14708;SDS011;7445;50.774;4.944;2023-02-01T05:02:33;12.37;;;4.00;;
14708;SDS011;7445;50.774;4.944;2023-02-01T05:05:00;20.63;;;4.80;;
14708;SDS011;7445;50.774;4.944;2023-02-01T05:07:25;19.43;;;4.90;;
14708;SDS011;7445;50.774;4.944;2023-02-01T05:09:51;12.93;;;4.73;;
14708;SDS011;7445;50.774;4.944;2023-02-01T05:12:17;18.47;;;4.90;;
14708;SDS011;7445;50.774;4.944;2023-02-01T05:15:01;14.00;;;4.27;;
14708;SDS011;7445;50.774;4.944;2023-02-01T05:17:27;23.00;;;5.30;;
14708;SDS011;7445;50.774;4.944;2023-02-01T05:19:52;23.17;;;7.07;;
14708;SDS011;7445;50.774;4.944;2023-02-01T05:22:18;19.73;;;5.60;;
14708;SDS011;7445;50.774;4.944;2023-02-01T05:24:44;13.13;;;4.30;;
14708;SDS011;7445;50.774;4.944;2023-02-01T05:27:09;24.90;;;5.87;;
14708;SDS011;7445;50.774;4.944;2023-02-01T05:29:35;24.83;;;6.13;;
14708;SDS011;7445;50.774;4.944;2023-02-01T05:32:01;22.63;;;5.13;;
14708;SDS011;7445;50.774;4.944;2023-02-01T05:34:26;20.63;;;5.67;;
14708;SDS011;7445;50.774;4.944;2023-02-01T05:36:52;20.03;;;6.90;;
14708;SDS011;7445;50.774;4.944;2023-02-01T05:39:18;9.87;;;3.70;;
14708;SDS011;7445;50.774;4.944;2023-02-01T05:41:44;19.37;;;5.10;;
14708;SDS011;7445;50.774;4.944;2023-02-01T05:44:10;18.50;;;6.07;;
14708;SDS011;7445;50.774;4.944;2023-02-01T05:46:36;16.67;;;6.23;;
14708;SDS011;7445;50.774;4.944;2023-02-01T05:49:02;18.70;;;5.47;;
14708;SDS011;7445;50.774;4.944;2023-02-01T05:51:28;10.77;;;4.40;;
14708;SDS011;7445;50.774;4.944;2023-02-01T05:53:54;25.50;;;5.33;;
14708;SDS011;7445;50.774;4.944;2023-02-01T05:56:20;13.63;;;4.90;;
14708;SDS011;7445;50.774;4.944;2023-02-01T05:58:45;17.00;;;5.43;;
14708;SDS011;7445;50.774;4.944;2023-02-01T06:01:11;18.23;;;6.37;;
14708;SDS011;7445;50.774;4.944;2023-02-01T06:03:39;29.57;;;5.80;;
14708;SDS011;7445;50.774;4.944;2023-02-01T06:06:05;19.10;;;5.33;;
14708;SDS011;7445;50.774;4.944;2023-02-01T06:08:31;18.50;;;6.23;;
14708;SDS011;7445;50.774;4.944;2023-02-01T06:10:57;22.90;;;4.87;;
14708;SDS011;7445;50.774;4.944;2023-02-01T06:13:27;16.70;;;4.77;;
14708;SDS011;7445;50.774;4.944;2023-02-01T06:15:53;14.83;;;5.43;;
14708;SDS011;7445;50.774;4.944;2023-02-01T06:18:20;18.13;;;5.40;;
14708;SDS011;7445;50.774;4.944;2023-02-01T06:20:51;22.50;;;6.00;;
14708;SDS011;7445;50.774;4.944;2023-02-01T06:23:18;19.40;;;5.30;;
14708;SDS011;7445;50.774;4.944;2023-02-01T06:25:43;23.13;;;4.97;;
14708;SDS011;7445;50.774;4.944;2023-02-01T06:28:10;22.97;;;5.43;;
14708;SDS011;7445;50.774;4.944;2023-02-01T06:30:35;16.93;;;4.80;;
14708;SDS011;7445;50.774;4.944;2023-02-01T06:33:01;24.50;;;5.60;;
14708;SDS011;7445;50.774;4.944;2023-02-01T06:35:27;25.30;;;5.87;;
14708;SDS011;7445;50.774;4.944;2023-02-01T06:37:52;11.50;;;4.57;;
14708;SDS011;7445;50.774;4.944;2023-02-01T06:40:18;12.50;;;4.47;;
14708;SDS011;7445;50.774;4.944;2023-02-01T06:42:44;23.50;;;6.00;;
14708;SDS011;7445;50.774;4.944;2023-02-01T06:45:09;33.53;;;5.03;;
14708;SDS011;7445;50.774;4.944;2023-02-01T06:47:35;23.97;;;5.27;;
14708;SDS011;7445;50.774;4.944;2023-02-01T06:50:01;25.33;;;5.77;;
14708;SDS011;7445;50.774;4.944;2023-02-01T06:52:27;18.60;;;5.13;;
14708;SDS011;7445;50.774;4.944;2023-02-01T06:54:53;24.23;;;4.73;;
14708;SDS011;7445;50.774;4.944;2023-02-01T06:57:19;17.93;;;5.97;;
14708;SDS011;7445;50.774;4.944;2023-02-01T06:59:44;14.17;;;5.07;;
14708;SDS011;7445;50.774;4.944;2023-02-01T07:02:10;23.23;;;5.80;;
14708;SDS011;7445;50.774;4.944;2023-02-01T07:04:36;25.60;;;6.57;;
14708;SDS011;7445;50.774;4.944;2023-02-01T07:07:02;12.53;;;5.07;;
14708;SDS011;7445;50.774;4.944;2023-02-01T07:09:28;21.03;;;5.43;;
14708;SDS011;7445;50.774;4.944;2023-02-01T07:11:53;18.50;;;4.97;;
14708;SDS011;7445;50.774;4.944;2023-02-01T07:14:19;20.60;;;5.50;;
14708;SDS011;7445;50.774;4.944;2023-02-01T07:16:44;21.23;;;5.50;;
14708;SDS011;7445;50.774;4.944;2023-02-01T07:19:10;30.13;;;6.20;;
14708;SDS011;7445;50.774;4.944;2023-02-01T07:21:36;21.10;;;5.17;;
14708;SDS011;7445;50.774;4.944;2023-02-01T07:24:01;22.27;;;6.13;;
14708;SDS011;7445;50.774;4.944;2023-02-01T07:26:27;21.77;;;5.27;;
14708;SDS011;7445;50.774;4.944;2023-02-01T07:28:52;27.93;;;6.20;;
14708;SDS011;7445;50.774;4.944;2023-02-01T07:31:18;16.90;;;5.10;;
14708;SDS011;7445;50.774;4.944;2023-02-01T07:33:46;21.10;;;5.20;;
14708;SDS011;7445;50.774;4.944;2023-02-01T07:36:14;21.10;;;6.03;;
14708;SDS011;7445;50.774;4.944;2023-02-01T07:38:41;22.30;;;6.00;;
14708;SDS011;7445;50.774;4.944;2023-02-01T07:41:07;23.33;;;6.73;;
14708;SDS011;7445;50.774;4.944;2023-02-01T07:43:33;21.07;;;5.77;;
14708;SDS011;7445;50.774;4.944;2023-02-01T07:45:59;16.73;;;4.83;;
14708;SDS011;7445;50.774;4.944;2023-02-01T07:48:26;24.00;;;5.17;;
14708;SDS011;7445;50.774;4.944;2023-02-01T07:51:05;20.53;;;6.13;;
14708;SDS011;7445;50.774;4.944;2023-02-01T07:53:36;15.07;;;5.23;;
14708;SDS011;7445;50.774;4.944;2023-02-01T07:56:08;26.53;;;6.57;;
14708;SDS011;7445;50.774;4.944;2023-02-01T07:58:51;15.37;;;5.37;;
14708;SDS011;7445;50.774;4.944;2023-02-01T08:01:23;19.20;;;5.87;;
14708;SDS011;7445;50.774;4.944;2023-02-01T08:04:00;23.83;;;6.20;;
14708;SDS011;7445;50.774;4.944;2023-02-01T08:06:28;26.80;;;6.60;;
14708;SDS011;7445;50.774;4.944;2023-02-01T08:09:21;15.40;;;4.87;;
14708;SDS011;7445;50.774;4.944;2023-02-01T08:11:48;22.50;;;5.33;;
14708;SDS011;7445;50.774;4.944;2023-02-01T08:14:13;22.60;;;6.70;;
14708;SDS011;7445;50.774;4.944;2023-02-01T08:16:39;24.17;;;5.90;;
14708;SDS011;7445;50.774;4.944;2023-02-01T08:19:04;21.00;;;6.23;;
14708;SDS011;7445;50.774;4.944;2023-02-01T08:21:30;16.67;;;5.47;;
14708;SDS011;7445;50.774;4.944;2023-02-01T08:24:05;20.83;;;5.40;;
14708;SDS011;7445;50.774;4.944;2023-02-01T08:26:33;17.17;;;6.10;;
14708;SDS011;7445;50.774;4.944;2023-02-01T08:29:00;28.73;;;6.90;;
14708;SDS011;7445;50.774;4.944;2023-02-01T08:31:28;25.37;;;6.30;;
14708;SDS011;7445;50.774;4.944;2023-02-01T08:33:56;23.03;;;5.73;;
14708;SDS011;7445;50.774;4.944;2023-02-01T08:36:31;28.83;;;5.90;;
14708;SDS011;7445;50.774;4.944;2023-02-01T08:38:59;20.80;;;6.20;;
14708;SDS011;7445;50.774;4.944;2023-02-01T08:41:49;11.37;;;5.17;;
14708;SDS011;7445;50.774;4.944;2023-02-01T08:44:47;21.80;;;6.13;;
14708;SDS011;7445;50.774;4.944;2023-02-01T08:47:58;12.60;;;4.47;;
14708;SDS011;7445;50.774;4.944;2023-02-01T08:50:30;17.97;;;6.67;;
14708;SDS011;7445;50.774;4.944;2023-02-01T08:53:02;28.47;;;7.17;;
14708;SDS011;7445;50.774;4.944;2023-02-01T08:55:30;14.67;;;4.53;;
14708;SDS011;7445;50.774;4.944;2023-02-01T08:57:57;13.30;;;5.03;;
14708;SDS011;7445;50.774;4.944;2023-02-01T09:00:23;22.83;;;6.07;;
14708;SDS011;7445;50.774;4.944;2023-02-01T09:02:59;24.97;;;4.93;;
14708;SDS011;7445;50.774;4.944;2023-02-01T09:05:43;21.73;;;6.00;;
14708;SDS011;7445;50.774;4.944;2023-02-01T09:08:23;19.90;;;5.97;;
14708;SDS011;7445;50.774;4.944;2023-02-01T09:29:50;19.17;;;6.40;;
14708;SDS011;7445;50.774;4.944;2023-02-01T09:38:54;19.07;;;5.97;;
14708;SDS011;7445;50.774;4.944;2023-02-01T09:53:44;20.93;;;6.27;;
14708;SDS011;7445;50.774;4.944;2023-02-01T09:57:13;18.50;;;5.27;;
14708;SDS011;7445;50.774;4.944;2023-02-01T10:02:39;14.57;;;4.93;;
14708;SDS011;7445;50.774;4.944;2023-02-01T10:05:12;21.37;;;5.87;;
14708;SDS011;7445;50.774;4.944;2023-02-01T10:10:41;18.53;;;6.60;;
14708;SDS011;7445;50.774;4.944;2023-02-01T10:16:53;16.53;;;5.43;;
14708;SDS011;7445;50.774;4.944;2023-02-01T10:22:44;19.90;;;5.53;;
14708;SDS011;7445;50.774;4.944;2023-02-01T10:25:28;15.83;;;4.90;;
14708;SDS011;7445;50.774;4.944;2023-02-01T10:28:03;17.57;;;5.57;;
14708;SDS011;7445;50.774;4.944;2023-02-01T10:40:32;16.03;;;4.90;;
14708;SDS011;7445;50.774;4.944;2023-02-01T10:56:06;20.00;;;4.73;;
14708;SDS011;7445;50.774;4.944;2023-02-01T10:59:02;15.33;;;4.63;;
14708;SDS011;7445;50.774;4.944;2023-02-01T11:02:27;16.50;;;5.30;;
14708;SDS011;7445;50.774;4.944;2023-02-01T11:07:45;10.87;;;3.93;;
14708;SDS011;7445;50.774;4.944;2023-02-01T11:11:02;17.50;;;5.40;;
14708;SDS011;7445;50.774;4.944;2023-02-01T11:13:54;18.83;;;5.33;;
14708;SDS011;7445;50.774;4.944;2023-02-01T11:16:40;8.33;;;3.37;;
14708;SDS011;7445;50.774;4.944;2023-02-01T11:19:15;14.47;;;4.60;;
14708;SDS011;7445;50.774;4.944;2023-02-01T11:22:21;14.10;;;4.70;;
14708;SDS011;7445;50.774;4.944;2023-02-01T11:25:15;11.30;;;4.33;;
14708;SDS011;7445;50.774;4.944;2023-02-01T11:28:31;14.60;;;4.03;;
14708;SDS011;7445;50.774;4.944;2023-02-01T11:31:36;16.67;;;4.30;;
14708;SDS011;7445;50.774;4.944;2023-02-01T11:34:28;14.90;;;4.57;;
14708;SDS011;7445;50.774;4.944;2023-02-01T11:42:59;19.97;;;4.63;;
14708;SDS011;7445;50.774;4.944;2023-02-01T11:45:32;10.77;;;3.87;;
14708;SDS011;7445;50.774;4.944;2023-02-01T11:48:23;13.13;;;3.00;;
14708;SDS011;7445;50.774;4.944;2023-02-01T11:57:15;14.80;;;4.10;;
14708;SDS011;7445;50.774;4.944;2023-02-01T12:05:55;11.53;;;4.20;;
14708;SDS011;7445;50.774;4.944;2023-02-01T12:14:23;14.47;;;3.13;;
14708;SDS011;7445;50.774;4.944;2023-02-01T12:17:45;17.73;;;3.40;;
14708;SDS011;7445;50.774;4.944;2023-02-01T12:47:12;8.20;;;3.10;;
14708;SDS011;7445;50.774;4.944;2023-02-01T12:53:12;7.23;;;2.53;;
14708;SDS011;7445;50.774;4.944;2023-02-01T12:56:06;8.40;;;1.90;;
14708;SDS011;7445;50.774;4.944;2023-02-01T12:58:48;12.73;;;3.03;;
14708;SDS011;7445;50.774;4.944;2023-02-01T13:02:01;9.33;;;2.23;;
14708;SDS011;7445;50.774;4.944;2023-02-01T13:25:01;8.13;;;2.30;;
14708;SDS011;7445;50.774;4.944;2023-02-01T13:28:11;9.33;;;2.27;;
14708;SDS011;7445;50.774;4.944;2023-02-01T13:33:49;17.07;;;3.43;;
14708;SDS011;7445;50.774;4.944;2023-02-01T13:43:01;9.20;;;1.93;;
14708;SDS011;7445;50.774;4.944;2023-02-01T13:46:25;7.50;;;2.63;;
14708;SDS011;7445;50.774;4.944;2023-02-01T13:49:55;10.73;;;2.93;;
14708;SDS011;7445;50.774;4.944;2023-02-01T13:52:26;8.20;;;1.90;;
14708;SDS011;7445;50.774;4.944;2023-02-01T13:58:57;9.13;;;2.33;;
14708;SDS011;7445;50.774;4.944;2023-02-01T14:05:10;11.00;;;1.60;;
14708;SDS011;7445;50.774;4.944;2023-02-01T14:10:59;7.03;;;2.03;;
14708;SDS011;7445;50.774;4.944;2023-02-01T14:13:49;8.60;;;2.10;;
14708;SDS011;7445;50.774;4.944;2023-02-01T14:19:34;5.60;;;2.33;;
14708;SDS011;7445;50.774;4.944;2023-02-01T14:22:52;6.27;;;2.43;;
14708;SDS011;7445;50.774;4.944;2023-02-01T14:29:38;12.10;;;3.30;;
14708;SDS011;7445;50.774;4.944;2023-02-01T14:32:43;11.80;;;2.03;;
14708;SDS011;7445;50.774;4.944;2023-02-01T14:35:24;4.00;;;1.80;;
14708;SDS011;7445;50.774;4.944;2023-02-01T14:37:59;7.30;;;2.20;;
14708;SDS011;7445;50.774;4.944;2023-02-01T14:41:21;9.73;;;2.90;;
14708;SDS011;7445;50.774;4.944;2023-02-01T14:47:43;7.17;;;2.57;;
14708;SDS011;7445;50.774;4.944;2023-02-01T14:50:00;8.53;;;2.50;;
14708;SDS011;7445;50.774;4.944;2023-02-01T14:53:33;5.50;;;2.07;;
14708;SDS011;7445;50.774;4.944;2023-02-01T14:56:14;6.67;;;2.03;;
14708;SDS011;7445;50.774;4.944;2023-02-01T14:59:09;10.60;;;3.27;;
14708;SDS011;7445;50.774;4.944;2023-02-01T15:01:50;12.00;;;3.23;;
14708;SDS011;7445;50.774;4.944;2023-02-01T15:04:53;7.57;;;2.47;;
14708;SDS011;7445;50.774;4.944;2023-02-01T15:07:23;4.93;;;2.63;;
14708;SDS011;7445;50.774;4.944;2023-02-01T15:10:14;6.57;;;3.00;;
14708;SDS011;7445;50.774;4.944;2023-02-01T15:13:03;8.37;;;3.07;;
14708;SDS011;7445;50.774;4.944;2023-02-01T15:16:13;8.20;;;2.73;;
14708;SDS011;7445;50.774;4.944;2023-02-01T15:19:22;9.43;;;3.00;;
14708;SDS011;7445;50.774;4.944;2023-02-01T15:22:31;14.90;;;3.00;;
14708;SDS011;7445;50.774;4.944;2023-02-01T15:25:46;13.57;;;3.17;;
14708;SDS011;7445;50.774;4.944;2023-02-01T15:32:15;9.23;;;2.67;;
14708;SDS011;7445;50.774;4.944;2023-02-01T15:41:18;12.53;;;3.60;;
14708;SDS011;7445;50.774;4.944;2023-02-01T15:47:05;13.47;;;3.57;;
14708;SDS011;7445;50.774;4.944;2023-02-01T15:50:26;10.47;;;2.93;;
14708;SDS011;7445;50.774;4.944;2023-02-01T15:53:03;9.50;;;3.23;;
14708;SDS011;7445;50.774;4.944;2023-02-01T15:56:05;8.80;;;3.67;;
14708;SDS011;7445;50.774;4.944;2023-02-01T15:58:35;7.80;;;2.77;;
14708;SDS011;7445;50.774;4.944;2023-02-01T16:01:39;12.93;;;3.23;;
14708;SDS011;7445;50.774;4.944;2023-02-01T16:04:34;7.67;;;2.70;;
14708;SDS011;7445;50.774;4.944;2023-02-01T16:07:53;17.47;;;3.00;;
14708;SDS011;7445;50.774;4.944;2023-02-01T16:10:30;12.40;;;2.77;;
14708;SDS011;7445;50.774;4.944;2023-02-01T16:13:03;8.40;;;3.07;;
14708;SDS011;7445;50.774;4.944;2023-02-01T16:15:43;9.80;;;3.57;;
14708;SDS011;7445;50.774;4.944;2023-02-01T16:18:51;10.17;;;4.13;;
14708;SDS011;7445;50.774;4.944;2023-02-01T16:21:36;12.27;;;3.23;;
14708;SDS011;7445;50.774;4.944;2023-02-01T16:24:42;11.07;;;4.27;;
14708;SDS011;7445;50.774;4.944;2023-02-01T16:27:57;13.53;;;4.17;;
14708;SDS011;7445;50.774;4.944;2023-02-01T16:31:00;13.43;;;3.60;;
14708;SDS011;7445;50.774;4.944;2023-02-01T16:34:25;16.63;;;3.53;;
14708;SDS011;7445;50.774;4.944;2023-02-01T16:37:50;7.80;;;4.57;;
14708;SDS011;7445;50.774;4.944;2023-02-01T16:41:27;11.10;;;4.00;;
14708;SDS011;7445;50.774;4.944;2023-02-01T16:44:43;15.20;;;3.33;;
14708;SDS011;7445;50.774;4.944;2023-02-01T16:47:57;11.70;;;3.23;;
14708;SDS011;7445;50.774;4.944;2023-02-01T16:50:46;17.07;;;4.43;;
14708;SDS011;7445;50.774;4.944;2023-02-01T16:53:16;8.77;;;4.07;;
14708;SDS011;7445;50.774;4.944;2023-02-01T17:33:00;15.93;;;4.87;;
14708;SDS011;7445;50.774;4.944;2023-02-01T17:35:29;10.40;;;3.87;;
14708;SDS011;7445;50.774;4.944;2023-02-01T17:38:00;15.33;;;4.87;;
14708;SDS011;7445;50.774;4.944;2023-02-01T17:40:26;13.03;;;4.53;;
14708;SDS011;7445;50.774;4.944;2023-02-01T17:42:59;9.30;;;3.37;;
14708;SDS011;7445;50.774;4.944;2023-02-01T17:45:35;15.83;;;4.63;;
14708;SDS011;7445;50.774;4.944;2023-02-01T17:48:25;13.13;;;4.63;;
14708;SDS011;7445;50.774;4.944;2023-02-01T17:50:52;16.17;;;4.27;;
14708;SDS011;7445;50.774;4.944;2023-02-01T17:53:26;8.90;;;3.43;;
14708;SDS011;7445;50.774;4.944;2023-02-01T17:55:58;10.57;;;3.93;;
14708;SDS011;7445;50.774;4.944;2023-02-01T17:58:47;15.07;;;3.13;;
14708;SDS011;7445;50.774;4.944;2023-02-01T18:09:58;14.90;;;4.40;;
14708;SDS011;7445;50.774;4.944;2023-02-01T18:12:27;16.47;;;4.30;;
14708;SDS011;7445;50.774;4.944;2023-02-01T18:19:19;16.03;;;4.53;;
14708;SDS011;7445;50.774;4.944;2023-02-01T18:21:37;16.97;;;3.57;;
14708;SDS011;7445;50.774;4.944;2023-02-01T18:39:30;20.90;;;5.57;;
14708;SDS011;7445;50.774;4.944;2023-02-01T19:16:14;18.87;;;7.20;;
14708;SDS011;7445;50.774;4.944;2023-02-01T19:18:42;21.77;;;7.03;;
14708;SDS011;7445;50.774;4.944;2023-02-01T19:21:09;20.73;;;6.47;;
14708;SDS011;7445;50.774;4.944;2023-02-01T19:23:39;16.17;;;6.37;;
14708;SDS011;7445;50.774;4.944;2023-02-01T19:26:09;27.97;;;6.67;;
14708;SDS011;7445;50.774;4.944;2023-02-01T19:28:39;23.43;;;7.20;;
14708;SDS011;7445;50.774;4.944;2023-02-01T19:31:07;19.75;;;5.38;;
14708;SDS011;7445;50.774;4.944;2023-02-01T19:33:36;23.23;;;7.90;;
14708;SDS011;7445;50.774;4.944;2023-02-01T19:36:03;12.40;;;5.10;;
14708;SDS011;7445;50.774;4.944;2023-02-01T19:38:30;24.00;;;6.90;;
14708;SDS011;7445;50.774;4.944;2023-02-01T19:40:57;15.63;;;6.43;;
14708;SDS011;7445;50.774;4.944;2023-02-01T19:43:23;21.60;;;7.27;;
14708;SDS011;7445;50.774;4.944;2023-02-01T19:45:49;17.80;;;6.00;;
14708;SDS011;7445;50.774;4.944;2023-02-01T19:48:14;20.23;;;7.13;;
14708;SDS011;7445;50.774;4.944;2023-02-01T19:50:41;27.37;;;6.77;;
14708;SDS011;7445;50.774;4.944;2023-02-01T19:53:07;29.10;;;7.07;;
14708;SDS011;7445;50.774;4.944;2023-02-01T19:55:33;23.03;;;6.30;;
14708;SDS011;7445;50.774;4.944;2023-02-01T19:57:58;20.60;;;7.13;;
14708;SDS011;7445;50.774;4.944;2023-02-01T20:00:26;24.23;;;7.17;;
14708;SDS011;7445;50.774;4.944;2023-02-01T20:02:52;21.30;;;6.43;;
14708;SDS011;7445;50.774;4.944;2023-02-01T20:05:18;14.53;;;5.33;;
14708;SDS011;7445;50.774;4.944;2023-02-01T20:07:43;19.57;;;6.03;;
14708;SDS011;7445;50.774;4.944;2023-02-01T20:10:09;37.43;;;6.67;;
14708;SDS011;7445;50.774;4.944;2023-02-01T20:12:35;19.33;;;5.87;;
14708;SDS011;7445;50.774;4.944;2023-02-01T20:15:01;19.53;;;5.97;;
14708;SDS011;7445;50.774;4.944;2023-02-01T20:17:27;24.37;;;6.97;;
14708;SDS011;7445;50.774;4.944;2023-02-01T20:19:53;16.83;;;6.07;;
14708;SDS011;7445;50.774;4.944;2023-02-01T20:22:19;19.90;;;6.80;;
14708;SDS011;7445;50.774;4.944;2023-02-01T20:24:45;20.43;;;6.33;;
14708;SDS011;7445;50.774;4.944;2023-02-01T20:27:13;24.23;;;7.00;;
14708;SDS011;7445;50.774;4.944;2023-02-01T20:29:41;28.50;;;7.07;;
14708;SDS011;7445;50.774;4.944;2023-02-01T20:32:07;19.50;;;6.57;;
14708;SDS011;7445;50.774;4.944;2023-02-01T20:34:35;22.43;;;7.93;;
14708;SDS011;7445;50.774;4.944;2023-02-01T20:37:00;25.20;;;6.00;;
14708;SDS011;7445;50.774;4.944;2023-02-01T20:39:26;21.43;;;6.83;;
14708;SDS011;7445;50.774;4.944;2023-02-01T20:41:54;28.73;;;7.30;;
14708;SDS011;7445;50.774;4.944;2023-02-01T20:44:20;20.93;;;6.27;;
14708;SDS011;7445;50.774;4.944;2023-02-01T20:46:46;16.73;;;7.13;;
14708;SDS011;7445;50.774;4.944;2023-02-01T20:49:12;22.57;;;5.77;;
14708;SDS011;7445;50.774;4.944;2023-02-01T20:51:37;22.47;;;8.07;;
14708;SDS011;7445;50.774;4.944;2023-02-01T20:54:03;19.93;;;6.77;;
14708;SDS011;7445;50.774;4.944;2023-02-01T20:56:29;24.53;;;8.27;;
14708;SDS011;7445;50.774;4.944;2023-02-01T20:58:54;24.17;;;6.67;;
14708;SDS011;7445;50.774;4.944;2023-02-01T21:01:27;18.10;;;5.10;;
14708;SDS011;7445;50.774;4.944;2023-02-01T21:03:56;16.00;;;6.30;;